Sv.knyaz Vladimir — UBKI2 — position and weather

sailwx.info

Track history (hours):
 
Tides and Currents Weather Stations Pressure Air Temp Water Temp Dewpoint Dewpoint Depression Visibility Wind Speed Wind Dir Waves Ship Positions

Sv.knyaz Vladimir

Last reported at 2015-Aug-04 12:29 UTC. Time now 2015-Aug-04 17:52 UTC.
Position N 36°58' E 002°24'.

Length 128 m; draft 3.5 m.

Type: Cargo ship. MMSI: 273350360.

Date/timePositionNaut miles runAvg speedWind from/ knotsBaromVisibWave heightAir tempDewpointWater temp
2015-Aug-04 12:29N 36°58' E 002°24'97 9.7
2015-Aug-04 02:30N 36°40' E 000°25'9 9.8
2015-Aug-04 01:33N 36°38' E 000°13'10 9.6
2015-Aug-04 00:32N 36°36' E 000°02'18 9.3
2015-Aug-03 22:33N 36°33' W 000°21'9 9.4
2015-Aug-03 21:33N 36°31' W 000°33'10 9.4
2015-Aug-03 20:28N 36°30' W 000°45'8 9.2
2015-Aug-03 19:33N 36°28' W 000°55'9 8.9
2015-Aug-03 18:31N 36°26' W 001°06'20 8.5
2015-Aug-03 16:10N 36°22' W 001°31'309 8.9
2015-Aug-02 05:30N 36°16' W 007°55'9 9.2
2015-Aug-02 04:32N 36°18' W 008°06'9 8.9
2015-Aug-02 03:32N 36°21' W 008°16'31 9.6
2015-Aug-02 00:20N 36°28' W 008°53'7 9.6
2015-Aug-01 23:33N 36°30' W 009°02'10 9.8
2015-Aug-01 22:33N 36°33' W 009°14'9 9.3
2015-Aug-01 21:33N 36°38' W 009°23'10 9.8
2015-Aug-01 20:33N 36°46' W 009°31'10 9.8
2015-Aug-01 19:32N 36°55' W 009°36'10 9.7
2015-Aug-01 18:33N 37°04' W 009°39'10 9.7
2015-Aug-01 17:32N 37°14' W 009°41'10 9.8
2015-Aug-01 16:33N 37°23' W 009°44'11 9.9
2015-Aug-01 15:28N 37°34' W 009°47'910.0
2015-Aug-01 14:33N 37°43' W 009°50'22 9.9
2015-Aug-01 12:18N 38°04' W 009°56'17 9.8
2015-Aug-01 10:33N 38°21' W 009°60'10 9.7
2015-Aug-01 09:33N 38°31' W 010°03'10 9.4
2015-Aug-01 08:32N 38°40' W 010°06'9 9.4
2015-Aug-01 07:32N 38°49' W 010°07'10 9.9
2015-Aug-01 06:33N 38°59' W 010°06'10 9.9
2015-Aug-01 05:33N 39°09' W 010°06'  
2015-Jul-27 20:03N 50°34' E 000°09'6 4.1
2015-Jul-27 18:33N 50°34' E 000°19'7 3.3
2015-Jul-27 16:32N 50°36' E 000°29'4 4.6
2015-Jul-27 15:33N 50°38' E 000°34'6 5.9
2015-Jul-27 14:33N 50°42' E 000°41'7 7.1
2015-Jul-27 13:33N 50°46' E 000°50'8 7.5
2015-Jul-27 12:31N 50°51' E 001°01'9 7.5
2015-Jul-27 11:16N 50°57' E 001°12'5 7.1
2015-Jul-27 10:31N 50°60' E 001°19'6 6.5
2015-Jul-27 09:33N 51°04' E 001°26'6 5.8
2015-Jul-27 08:33N 51°08' E 001°34'6 5.6
2015-Jul-27 07:33N 51°11' E 001°40'6 6.1
2015-Jul-27 06:33N 51°16' E 001°47'7 7.2
2015-Jul-27 05:33N 51°22' E 001°51'8 8.2
2015-Jul-27 04:33N 51°29' E 001°58'9 8.8
2015-Jul-27 03:33N 51°36' E 002°08'156 7.1
2015-Jul-26 05:30N 54°08' E 001°07'9 8.4
2015-Jul-26 04:25N 54°13' E 000°54'7 8.4
2015-Jul-26 03:33N 54°17' E 000°44'9 8.6
2015-Jul-26 02:33N 54°22' E 000°32'9 8.7
2015-Jul-26 01:33N 54°27' E 000°20'9 8.9
2015-Jul-26 00:34N 54°32' E 000°07'9 8.9
2015-Jul-25 23:33N 54°37' W 000°05'9 8.8
2015-Jul-25 22:34N 54°42' W 000°18'9 8.7
2015-Jul-25 21:30N 54°47' W 000°31'8 8.5
2015-Jul-25 20:33N 54°52' W 000°43'8 8.4
2015-Jul-25 19:33N 54°57' W 000°55'8 8.1
2015-Jul-25 18:32N 55°01' W 001°07'8 8.0
2015-Jul-25 17:33N 55°05' W 001°19'8 7.3
2015-Jul-25 16:31N 55°08' W 001°31'  
Track history (hours):
 
Tides and Currents Weather Stations Pressure Air Temp Water Temp Dewpoint Dewpoint Depression Visibility Wind Speed Wind Dir Waves Ship Positions

Sv.knyaz Vladimir

Last reported at 2015-Aug-04 12:29 UTC. Time now 2015-Aug-04 17:52 UTC.
Position N 36°58' E 002°24'.

Length 128 m; draft 3.5 m.

Type: Cargo ship. MMSI: 273350360.

Date/timePositionNaut miles runAvg speedWind from/ knotsBaromVisibWave heightAir tempDewpointWater temp
2015-Aug-04 12:29N 36°58' E 002°24'97 9.7
2015-Aug-04 02:30N 36°40' E 000°25'9 9.8
2015-Aug-04 01:33N 36°38' E 000°13'10 9.6
2015-Aug-04 00:32N 36°36' E 000°02'18 9.3
2015-Aug-03 22:33N 36°33' W 000°21'9 9.4
2015-Aug-03 21:33N 36°31' W 000°33'10 9.4
2015-Aug-03 20:28N 36°30' W 000°45'8 9.2
2015-Aug-03 19:33N 36°28' W 000°55'9 8.9
2015-Aug-03 18:31N 36°26' W 001°06'20 8.5
2015-Aug-03 16:10N 36°22' W 001°31'309 8.9
2015-Aug-02 05:30N 36°16' W 007°55'9 9.2
2015-Aug-02 04:32N 36°18' W 008°06'9 8.9
2015-Aug-02 03:32N 36°21' W 008°16'31 9.6
2015-Aug-02 00:20N 36°28' W 008°53'7 9.6
2015-Aug-01 23:33N 36°30' W 009°02'10 9.8
2015-Aug-01 22:33N 36°33' W 009°14'9 9.3
2015-Aug-01 21:33N 36°38' W 009°23'10 9.8
2015-Aug-01 20:33N 36°46' W 009°31'10 9.8
2015-Aug-01 19:32N 36°55' W 009°36'10 9.7
2015-Aug-01 18:33N 37°04' W 009°39'10 9.7
2015-Aug-01 17:32N 37°14' W 009°41'10 9.8
2015-Aug-01 16:33N 37°23' W 009°44'11 9.9
2015-Aug-01 15:28N 37°34' W 009°47'910.0
2015-Aug-01 14:33N 37°43' W 009°50'22 9.9
2015-Aug-01 12:18N 38°04' W 009°56'17 9.8
2015-Aug-01 10:33N 38°21' W 009°60'10 9.7
2015-Aug-01 09:33N 38°31' W 010°03'10 9.4
2015-Aug-01 08:32N 38°40' W 010°06'9 9.4
2015-Aug-01 07:32N 38°49' W 010°07'10 9.9
2015-Aug-01 06:33N 38°59' W 010°06'10 9.9
2015-Aug-01 05:33N 39°09' W 010°06'  
2015-Jul-27 20:03N 50°34' E 000°09'6 4.1
2015-Jul-27 18:33N 50°34' E 000°19'7 3.3
2015-Jul-27 16:32N 50°36' E 000°29'4 4.6
2015-Jul-27 15:33N 50°38' E 000°34'6 5.9
2015-Jul-27 14:33N 50°42' E 000°41'7 7.1
2015-Jul-27 13:33N 50°46' E 000°50'8 7.5
2015-Jul-27 12:31N 50°51' E 001°01'9 7.5
2015-Jul-27 11:16N 50°57' E 001°12'5 7.1
2015-Jul-27 10:31N 50°60' E 001°19'6 6.5
2015-Jul-27 09:33N 51°04' E 001°26'6 5.8
2015-Jul-27 08:33N 51°08' E 001°34'6 5.6
2015-Jul-27 07:33N 51°11' E 001°40'6 6.1
2015-Jul-27 06:33N 51°16' E 001°47'7 7.2
2015-Jul-27 05:33N 51°22' E 001°51'8 8.2
2015-Jul-27 04:33N 51°29' E 001°58'9 8.8
2015-Jul-27 03:33N 51°36' E 002°08'156 7.1
2015-Jul-26 05:30N 54°08' E 001°07'9 8.4
2015-Jul-26 04:25N 54°13' E 000°54'7 8.4
2015-Jul-26 03:33N 54°17' E 000°44'9 8.6
2015-Jul-26 02:33N 54°22' E 000°32'9 8.7
2015-Jul-26 01:33N 54°27' E 000°20'9 8.9
2015-Jul-26 00:34N 54°32' E 000°07'9 8.9
2015-Jul-25 23:33N 54°37' W 000°05'9 8.8
2015-Jul-25 22:34N 54°42' W 000°18'9 8.7
2015-Jul-25 21:30N 54°47' W 000°31'8 8.5
2015-Jul-25 20:33N 54°52' W 000°43'8 8.4
2015-Jul-25 19:33N 54°57' W 000°55'8 8.1
2015-Jul-25 18:32N 55°01' W 001°07'8 8.0
2015-Jul-25 17:33N 55°05' W 001°19'8 7.3
2015-Jul-25 16:31N 55°08' W 001°31'  

Dump ship's entire track history